Time;durP1;ratioP1;P1;durP2;ratioP2;P2;SDS_P1;SDS_P2;PMS_P1;PMS_P2;Temp;Humidity;BMP_temperature;BMP_pressure;BME280_temperature;BME280_humidity;BME280_pressure;Samples;Min_cycle;Max_cycle;Signal;HPM_P1;HPM_P2
2021/03/01 00:01:16;;;;;;;43.80;17.42;;;3.50;99.90;;;;;;5041588;28;20055;-61
2021/03/01 00:03:42;;;;;;;47.10;18.85;;;3.40;99.90;;;;;;5039500;28;20362;-60
2021/03/01 00:06:07;;;;;;;49.55;19.83;;;3.30;99.90;;;;;;5042412;28;20036;-62
2021/03/01 00:08:33;;;;;;;44.22;19.80;;;3.20;99.90;;;;;;5044368;28;20048;-62
2021/03/01 00:10:58;;;;;;;48.40;19.88;;;3.30;99.90;;;;;;5044358;28;20067;-62
2021/03/01 00:13:25;;;;;;;49.38;21.08;;;3.30;99.90;;;;;;5044445;28;20060;-62
2021/03/01 00:15:52;;;;;;;44.50;18.98;;;3.30;99.90;;;;;;5042175;28;20063;-61
2021/03/01 00:18:17;;;;;;;49.30;20.85;;;3.30;99.90;;;;;;5044046;28;20029;-61
2021/03/01 00:20:43;;;;;;;48.53;20.92;;;3.40;99.90;;;;;;5041192;28;20369;-62
2021/03/01 00:23:11;;;;;;;43.25;19.85;;;3.50;99.90;;;;;;5040574;28;20099;-62
2021/03/01 00:25:38;;;;;;;42.65;19.02;;;3.50;99.90;;;;;;5037141;28;20052;-62
2021/03/01 00:28:05;;;;;;;42.38;18.52;;;3.60;99.90;;;;;;5045037;28;20021;-61
2021/03/01 00:30:31;;;;;;;44.80;19.10;;;3.60;99.90;;;;;;5035703;28;20029;-61
2021/03/01 00:32:56;;;;;;;41.00;16.85;;;3.60;99.90;;;;;;5038943;28;20036;-61
2021/03/01 00:35:22;;;;;;;30.90;15.07;;;3.50;99.90;;;;;;5044221;28;20041;-61
2021/03/01 00:37:48;;;;;;;40.17;16.13;;;3.40;99.90;;;;;;5043687;28;20057;-61
2021/03/01 00:40:13;;;;;;;33.40;16.17;;;3.30;99.90;;;;;;5045392;28;20021;-62
2021/03/01 00:42:39;;;;;;;42.38;16.80;;;3.30;99.90;;;;;;5043892;28;20105;-62
2021/03/01 00:45:06;;;;;;;37.92;17.52;;;3.20;99.90;;;;;;5036181;28;20025;-62
2021/03/01 00:47:32;;;;;;;41.28;17.00;;;3.00;99.90;;;;;;5036982;28;20041;-62
2021/03/01 00:49:58;;;;;;;40.97;17.88;;;2.90;99.90;;;;;;5043169;28;20366;-61
2021/03/01 00:52:25;;;;;;;42.13;18.38;;;2.80;99.90;;;;;;5046402;28;20501;-61
2021/03/01 00:54:50;;;;;;;47.58;20.23;;;2.80;99.90;;;;;;5038929;28;20499;-62
2021/03/01 00:57:16;;;;;;;43.88;19.55;;;2.90;99.90;;;;;;5048240;28;20029;-62
2021/03/01 00:59:41;;;;;;;44.67;20.17;;;2.90;99.90;;;;;;5047295;28;20034;-62
2021/03/01 01:02:07;;;;;;;39.53;17.98;;;3.00;99.90;;;;;;5038852;28;20029;-62
2021/03/01 01:04:32;;;;;;;37.65;16.98;;;2.90;99.90;;;;;;5037917;28;20038;-62
2021/03/01 01:06:58;;;;;;;40.88;17.50;;;2.90;99.90;;;;;;5040260;28;20053;-62
2021/03/01 01:09:23;;;;;;;38.53;17.08;;;2.70;99.90;;;;;;5040441;28;20396;-61
2021/03/01 01:11:49;;;;;;;37.53;17.48;;;2.60;99.90;;;;;;5042110;28;20033;-61
2021/03/01 01:14:14;;;;;;;37.97;16.88;;;2.60;99.90;;;;;;5039540;28;20111;-61
2021/03/01 01:16:40;;;;;;;43.85;16.88;;;2.60;99.90;;;;;;5045474;28;20103;-61
2021/03/01 01:19:07;;;;;;;40.28;17.17;;;2.60;99.90;;;;;;5036678;28;20028;-61
2021/03/01 01:21:33;;;;;;;42.80;16.95;;;2.70;99.90;;;;;;5041716;28;20498;-60
2021/03/01 01:23:58;;;;;;;38.97;18.73;;;2.80;99.90;;;;;;5038492;28;20105;-61
2021/03/01 01:26:24;;;;;;;48.60;18.13;;;2.80;99.90;;;;;;5041778;28;20083;-60
2021/03/01 01:28:49;;;;;;;49.85;18.58;;;2.80;99.90;;;;;;5040147;28;20055;-61
2021/03/01 01:31:15;;;;;;;44.65;18.38;;;2.70;99.90;;;;;;5047523;28;20485;-61
2021/03/01 01:33:40;;;;;;;42.85;17.50;;;2.70;99.90;;;;;;5035672;28;20030;-60
2021/03/01 01:36:06;;;;;;;38.65;17.58;;;2.50;99.90;;;;;;5044654;28;20035;-61
2021/03/01 01:38:31;;;;;;;40.58;17.95;;;2.50;99.90;;;;;;5040796;28;20033;-61
2021/03/01 01:40:57;;;;;;;41.65;18.30;;;2.40;99.90;;;;;;5040974;28;20041;-61
2021/03/01 01:43:22;;;;;;;39.50;18.05;;;2.40;99.90;;;;;;5037802;28;20040;-61
2021/03/01 01:45:48;;;;;;;49.65;19.58;;;2.40;99.90;;;;;;5044588;28;20485;-62
2021/03/01 01:48:13;;;;;;;49.38;19.38;;;2.40;99.90;;;;;;5045176;28;20465;-61
2021/03/01 01:50:39;;;;;;;49.17;19.17;;;2.40;99.90;;;;;;5040273;28;20037;-61
2021/03/01 01:53:05;;;;;;;46.85;19.98;;;2.50;99.90;;;;;;5041946;28;20053;-60
2021/03/01 01:55:31;;;;;;;45.20;18.88;;;2.50;99.90;;;;;;5036456;28;20061;-61
2021/03/01 01:57:56;;;;;;;44.20;18.77;;;2.50;99.90;;;;;;5033278;28;20120;-60
2021/03/01 02:03:29;;;;;;;45.92;18.02;;;2.40;99.90;;;;;;5039989;28;20066;-61
2021/03/01 02:06:01;;;;;;;47.05;17.10;;;2.30;99.90;;;;;;5036428;28;20029;-61
2021/03/01 02:08:48;;;;;;;39.70;18.02;;;2.30;99.90;;;;;;5043577;28;20079;-61
2021/03/01 02:11:22;;;;;;;41.85;17.92;;;2.30;99.90;;;;;;5036745;28;20029;-61
2021/03/01 02:14:00;;;;;;;;;;;2.20;99.90;;;;;;5041831;28;20449;-60
2021/03/01 02:16:32;;;;;;;39.20;17.02;;;2.20;99.90;;;;;;5036861;28;19917;-60
2021/03/01 02:18:58;;;;;;;40.83;17.05;;;2.10;99.90;;;;;;5041682;28;20021;-61
2021/03/01 02:21:25;;;;;;;41.95;18.65;;;2.00;99.90;;;;;;5045013;28;20516;-60
2021/03/01 02:23:50;;;;;;;43.58;18.70;;;2.00;99.90;;;;;;5043990;28;20032;-61
2021/03/01 02:26:25;;;;;;;38.15;17.55;;;2.00;99.90;;;;;;5046977;28;20373;-60
2021/03/01 02:28:56;;;;;;;43.17;17.67;;;1.90;99.90;;;;;;5042520;28;20384;-61
2021/03/01 02:31:25;;;;;;;38.00;16.45;;;1.90;99.90;;;;;;5050709;28;20025;-61
2021/03/01 02:33:54;;;;;;;38.45;16.08;;;1.90;99.90;;;;;;5046627;28;20452;-61
2021/03/01 02:36:35;;;;;;;40.33;17.33;;;1.90;99.90;;;;;;5048003;28;20044;-61
2021/03/01 02:39:04;;;;;;;40.75;17.45;;;1.90;99.90;;;;;;5043526;28;20051;-61
2021/03/01 02:41:32;;;;;;;35.53;16.40;;;1.90;99.90;;;;;;5044547;28;20059;-61
2021/03/01 02:43:58;;;;;;;37.53;15.70;;;2.00;99.90;;;;;;5048652;28;20100;-61
2021/03/01 02:46:24;;;;;;;33.50;15.55;;;2.00;99.90;;;;;;5048309;28;20036;-60
2021/03/01 02:48:50;;;;;;;36.05;15.43;;;1.90;99.90;;;;;;5042579;28;20018;-61
2021/03/01 02:51:17;;;;;;;39.00;15.57;;;1.90;99.90;;;;;;5049406;28;20037;-61
2021/03/01 02:53:44;;;;;;;39.00;16.70;;;2.00;99.90;;;;;;5038594;28;20083;-61
2021/03/01 02:56:10;;;;;;;37.92;16.73;;;1.90;99.90;;;;;;5043233;28;20043;-61
2021/03/01 02:58:39;;;;;;;35.80;16.02;;;1.80;99.90;;;;;;5041585;28;20037;-61
2021/03/01 03:01:06;;;;;;;35.35;18.55;;;1.90;99.90;;;;;;5050023;28;20033;-60
2021/03/01 03:03:32;;;;;;;38.75;15.35;;;2.00;99.90;;;;;;5039674;28;20021;-61
2021/03/01 03:06:00;;;;;;;33.40;15.55;;;2.00;99.90;;;;;;5046163;28;20180;-61
2021/03/01 03:08:29;;;;;;;34.22;15.63;;;1.90;99.90;;;;;;5042320;28;20039;-61
2021/03/01 03:10:55;;;;;;;32.35;15.18;;;1.80;99.90;;;;;;5045391;28;20057;-60
2021/03/01 03:13:22;;;;;;;31.10;15.02;;;1.70;99.90;;;;;;5045806;28;20061;-61
2021/03/01 03:15:54;;;;;;;32.22;16.38;;;1.60;99.90;;;;;;5045968;28;20034;-60
2021/03/01 03:18:22;;;;;;;34.97;15.38;;;1.60;99.90;;;;;;5034140;28;20051;-60
2021/03/01 03:20:47;;;;;;;42.58;17.00;;;1.60;99.90;;;;;;5053228;28;20055;-61
2021/03/01 03:23:13;;;;;;;37.58;16.50;;;1.60;99.90;;;;;;5034614;28;20474;-61
2021/03/01 03:25:39;;;;;;;40.63;17.20;;;1.70;99.90;;;;;;5055347;28;20498;-61
2021/03/01 03:28:05;;;;;;;38.38;17.05;;;1.70;99.90;;;;;;5043237;28;20021;-61
2021/03/01 03:30:32;;;;;;;46.05;17.75;;;1.70;99.90;;;;;;5040450;28;20033;-61
2021/03/01 03:32:57;;;;;;;39.70;17.13;;;1.70;99.90;;;;;;5048680;28;20024;-61
2021/03/01 03:35:23;;;;;;;35.30;15.88;;;1.60;99.90;;;;;;5044820;28;20017;-60
2021/03/01 03:38:03;;;;;;;45.92;16.27;;;1.50;99.90;;;;;;5048597;28;20032;-61
2021/03/01 03:40:30;;;;;;;35.20;16.73;;;1.50;99.90;;;;;;5047578;28;20025;-60
2021/03/01 03:42:57;;;;;;;42.10;18.20;;;1.50;99.90;;;;;;5046520;28;20031;-60
2021/03/01 03:45:24;;;;;;;42.00;18.40;;;1.50;99.90;;;;;;5038554;28;20035;-60
2021/03/01 03:47:52;;;;;;;38.67;17.60;;;1.50;99.90;;;;;;5038893;28;20021;-61
2021/03/01 03:50:21;;;;;;;45.65;17.63;;;1.50;99.90;;;;;;5049171;28;20055;-60
2021/03/01 03:52:47;;;;;;;41.42;17.55;;;1.50;99.90;;;;;;5039364;28;20223;-61
2021/03/01 03:55:18;;;;;;;47.70;21.05;;;1.50;99.90;;;;;;5043499;28;20029;-61
2021/03/01 03:57:53;;;;;;;35.53;18.00;;;1.50;99.90;;;;;;5037758;28;20021;-61
2021/03/01 04:00:21;;;;;;;37.80;15.75;;;1.50;99.90;;;;;;5046178;28;20017;-60
2021/03/01 04:02:46;;;;;;;44.65;17.02;;;1.50;99.90;;;;;;5037894;28;20282;-61
2021/03/01 04:05:14;;;;;;;36.05;18.65;;;1.40;99.90;;;;;;5048975;28;20183;-61
2021/03/01 04:07:41;;;;;;;38.28;16.63;;;1.30;99.90;;;;;;5041784;28;20377;-61
2021/03/01 04:10:08;;;;;;;36.42;16.77;;;1.20;99.90;;;;;;5048720;28;20034;-60
2021/03/01 04:12:36;;;;;;;42.90;16.92;;;1.10;99.90;;;;;;5038666;28;20068;-61
2021/03/01 04:15:03;;;;;;;36.35;16.58;;;1.00;99.90;;;;;;5042299;28;20033;-61
2021/03/01 04:17:29;;;;;;;41.30;17.35;;;1.00;99.90;;;;;;5039140;28;20039;-61
2021/03/01 04:19:57;;;;;;;38.75;18.23;;;1.00;99.90;;;;;;5046375;28;20057;-60
2021/03/01 04:22:24;;;;;;;42.17;19.08;;;1.00;99.90;;;;;;5037320;28;20192;-60
2021/03/01 04:24:52;;;;;;;41.85;17.58;;;1.00;99.90;;;;;;5043491;28;20037;-60
2021/03/01 04:27:18;;;;;;;43.05;18.13;;;1.00;99.90;;;;;;5039522;28;20182;-61
2021/03/01 04:29:44;;;;;;;34.95;16.92;;;1.10;99.90;;;;;;5039481;28;20116;-61
2021/03/01 04:32:11;;;;;;;33.80;17.08;;;1.20;99.90;;;;;;5044906;28;20052;-60
2021/03/01 04:34:37;;;;;;;42.28;17.80;;;1.20;99.90;;;;;;5043680;28;20032;-61
2021/03/01 04:37:03;;;;;;;42.97;18.83;;;1.30;99.90;;;;;;5036917;28;20548;-61
2021/03/01 04:39:29;;;;;;;43.95;18.52;;;1.20;99.90;;;;;;5038894;28;20117;-61
2021/03/01 04:41:54;;;;;;;40.60;18.02;;;1.10;99.90;;;;;;5034617;28;20033;-61
2021/03/01 04:44:21;;;;;;;44.13;19.73;;;1.00;99.90;;;;;;5035863;28;20026;-61
2021/03/01 04:46:52;;;;;;;46.80;21.30;;;1.00;99.90;;;;;;5039363;28;20043;-61
2021/03/01 04:49:21;;;;;;;41.75;18.38;;;1.00;99.90;;;;;;5049707;28;20105;-61
2021/03/01 04:51:48;;;;;;;48.30;19.77;;;0.90;99.90;;;;;;5045688;28;20475;-61
2021/03/01 04:54:14;;;;;;;50.72;19.20;;;0.80;99.90;;;;;;5045203;28;20483;-61
2021/03/01 04:56:43;;;;;;;54.92;22.45;;;0.80;99.90;;;;;;5042244;28;20035;-61
2021/03/01 04:59:11;;;;;;;46.22;19.95;;;0.80;99.90;;;;;;5039156;28;20048;-61
2021/03/01 05:01:37;;;;;;;44.50;18.48;;;0.90;99.90;;;;;;5047281;28;20033;-61
2021/03/01 05:04:04;;;;;;;48.45;19.35;;;0.90;99.90;;;;;;5035744;28;20419;-60
2021/03/01 05:06:30;;;;;;;54.00;22.70;;;1.00;99.90;;;;;;5042939;28;20063;-61
2021/03/01 05:08:55;;;;;;;49.38;21.48;;;0.90;99.90;;;;;;5036334;28;20504;-61
2021/03/01 05:11:33;;;;;;;54.33;21.40;;;0.90;99.90;;;;;;5042697;28;20511;-61
2021/03/01 05:14:04;;;;;;;49.08;19.77;;;0.80;99.90;;;;;;5035004;28;20079;-61
2021/03/01 05:16:29;;;;;;;46.88;21.17;;;0.80;99.90;;;;;;5045784;28;20039;-61
2021/03/01 05:18:56;;;;;;;42.00;19.58;;;0.70;99.90;;;;;;5042105;28;20029;-61
2021/03/01 05:21:21;;;;;;;45.40;19.20;;;0.70;99.90;;;;;;5047159;28;20584;-61
2021/03/01 05:23:50;;;;;;;48.25;21.85;;;0.60;99.90;;;;;;5034658;28;20109;-61
2021/03/01 05:26:16;;;;;;;54.40;21.77;;;0.70;99.90;;;;;;5046191;28;20035;-61
2021/03/01 05:28:42;;;;;;;46.72;21.45;;;0.60;99.90;;;;;;5042773;28;20040;-60
2021/03/01 05:31:08;;;;;;;49.08;21.50;;;0.60;99.90;;;;;;5041098;28;20028;-61
2021/03/01 05:33:34;;;;;;;51.20;22.20;;;0.60;99.90;;;;;;5040889;28;20026;-60
2021/03/01 05:36:00;;;;;;;59.47;23.15;;;0.60;99.90;;;;;;5044335;28;20450;-60
2021/03/01 05:38:26;;;;;;;53.45;21.38;;;0.60;99.90;;;;;;5039034;28;20030;-61
2021/03/01 05:40:52;;;;;;;49.92;21.13;;;0.60;99.90;;;;;;5042661;28;20038;-61
2021/03/01 05:43:21;;;;;;;51.05;20.63;;;0.60;99.90;;;;;;5036868;28;20026;-61
2021/03/01 05:45:48;;;;;;;52.58;20.13;;;0.70;99.90;;;;;;5036951;28;20033;-61
2021/03/01 05:48:14;;;;;;;58.40;21.40;;;0.70;99.90;;;;;;5036148;28;20037;-61
2021/03/01 05:50:41;;;;;;;53.30;20.67;;;0.80;99.90;;;;;;5044957;28;20370;-60
2021/03/01 05:53:09;;;;;;;43.72;21.02;;;0.80;99.90;;;;;;5040877;28;20025;-61
2021/03/01 05:55:36;;;;;;;40.47;19.45;;;0.90;99.90;;;;;;5040364;28;20031;-61
2021/03/01 05:58:02;;;;;;;44.80;20.70;;;0.90;99.90;;;;;;5043730;28;20104;-61
2021/03/01 06:00:28;;;;;;;43.33;19.42;;;0.80;99.90;;;;;;5043367;28;20108;-60
2021/03/01 06:02:57;;;;;;;47.80;20.30;;;0.90;99.90;;;;;;5044716;28;20044;-61
2021/03/01 06:05:24;;;;;;;40.25;19.73;;;0.90;99.90;;;;;;5044480;28;20342;-61
2021/03/01 06:07:54;;;;;;;40.28;19.63;;;0.90;99.90;;;;;;5037231;28;20035;-61
2021/03/01 06:10:20;;;;;;;43.65;19.90;;;0.90;99.90;;;;;;5042411;28;20109;-61
2021/03/01 06:12:45;;;;;;;43.85;18.20;;;0.80;99.90;;;;;;5041382;28;20212;-58
2021/03/01 06:15:12;;;;;;;49.63;19.85;;;0.70;99.90;;;;;;5044833;28;20043;-55
2021/03/01 06:17:37;;;;;;;45.47;19.67;;;0.60;99.90;;;;;;5042803;28;21196;-55
2021/03/01 06:20:04;;;;;;;50.70;19.40;;;0.60;99.90;;;;;;5042886;28;20037;-55
2021/03/01 06:22:43;;;;;;;42.38;19.08;;;0.60;99.90;;;;;;5050460;28;20112;-57
2021/03/01 06:25:15;;;;;;;45.50;20.08;;;0.60;99.90;;;;;;5040534;28;20051;-58
2021/03/01 06:27:52;;;;;;;44.97;18.40;;;0.50;99.90;;;;;;5043221;28;20087;-58
2021/03/01 06:30:40;;;;;;;46.50;20.45;;;0.50;99.90;;;;;;5045387;28;20029;-59
2021/03/01 06:33:08;;;;;;;44.65;20.83;;;0.60;99.90;;;;;;5047320;28;20757;-56
2021/03/01 06:35:50;;;;;;;50.72;20.35;;;0.60;99.90;;;;;;5041673;28;20389;-56
2021/03/01 06:38:35;;;;;;;46.55;21.17;;;0.60;99.90;;;;;;5046566;28;20100;-56
2021/03/01 06:41:10;;;;;;;42.03;20.50;;;0.60;99.90;;;;;;5049749;28;20251;-58
2021/03/01 06:43:36;;;;;;;46.17;20.05;;;0.50;99.90;;;;;;5046391;28;20457;-57
2021/03/01 06:46:10;;;;;;;54.60;20.48;;;0.50;99.90;;;;;;5048462;28;20350;-58
2021/03/01 06:48:37;;;;;;;52.80;20.52;;;0.50;99.90;;;;;;5037423;28;20120;-58
2021/03/01 06:51:02;;;;;;;44.50;18.63;;;0.60;99.90;;;;;;5042913;28;20061;-59
2021/03/01 06:53:28;;;;;;;42.40;20.27;;;0.70;99.90;;;;;;5052078;28;20059;-58
2021/03/01 06:55:57;;;;;;;44.83;20.20;;;0.80;99.90;;;;;;5052709;28;20087;-58
2021/03/01 06:58:27;;;;;;;36.05;18.65;;;0.80;99.90;;;;;;5046657;28;20512;-58
2021/03/01 07:01:13;;;;;;;49.47;20.88;;;0.90;99.90;;;;;;5048086;28;20573;-58
2021/03/01 07:03:40;;;;;;;49.33;20.83;;;0.90;99.90;;;;;;5045361;28;20036;-58
2021/03/01 07:06:07;;;;;;;54.35;23.08;;;0.90;99.90;;;;;;5050052;28;20036;-58
2021/03/01 07:08:52;;;;;;;43.42;22.10;;;0.90;99.90;;;;;;5045189;28;20032;-59
2021/03/01 07:11:24;;;;;;;;;;;1.00;99.90;;;;;;5043253;28;20416;-58
2021/03/01 07:13:50;;;;;;;45.70;19.63;;;1.00;99.90;;;;;;5044047;28;20388;-59
2021/03/01 07:16:16;;;;;;;47.47;22.10;;;1.10;99.90;;;;;;5047164;28;20563;-58
2021/03/01 07:18:43;;;;;;;42.92;19.70;;;1.10;99.90;;;;;;5053847;28;20507;-57
2021/03/01 07:21:13;;;;;;;50.72;21.73;;;1.10;99.90;;;;;;5042669;28;20392;-58
2021/03/01 07:23:42;;;;;;;47.92;21.25;;;1.20;99.90;;;;;;5040671;28;20021;-58
2021/03/01 07:26:10;;;;;;;49.72;22.88;;;1.20;99.90;;;;;;5045875;28;20497;-58
2021/03/01 07:28:49;;;;;;;61.97;25.38;;;1.30;99.90;;;;;;5047779;28;20028;-58
2021/03/01 07:31:17;;;;;;;54.53;21.73;;;1.30;99.90;;;;;;5048508;28;20057;-56
2021/03/01 07:33:43;;;;;;;47.00;22.98;;;1.40;99.90;;;;;;5047671;28;20029;-58
2021/03/01 07:36:10;;;;;;;49.67;21.50;;;1.50;99.90;;;;;;5043676;28;20180;-58
2021/03/01 07:38:36;;;;;;;46.58;22.17;;;1.60;99.90;;;;;;5044136;28;20481;-59
2021/03/01 07:41:03;;;;;;;40.63;20.00;;;1.70;99.90;;;;;;5048515;28;20048;-58
2021/03/01 07:43:31;;;;;;;41.10;21.52;;;1.80;99.90;;;;;;5049237;28;20021;-58
2021/03/01 07:45:57;;;;;;;50.17;20.55;;;1.80;99.90;;;;;;5049432;28;20025;-58
2021/03/01 07:48:32;;;;;;;48.15;23.65;;;1.90;99.90;;;;;;5047945;28;20021;-59
2021/03/01 07:50:58;;;;;;;43.42;19.55;;;2.00;99.90;;;;;;5048659;28;20673;-58
2021/03/01 07:53:49;;;;;;;50.90;18.75;;;2.10;99.90;;;;;;5049667;28;20450;-59
2021/03/01 07:56:37;;;;;;;38.65;18.48;;;2.20;99.90;;;;;;5048961;28;20136;-58
2021/03/01 07:59:08;;;;;;;39.72;17.70;;;2.30;99.90;;;;;;5041812;28;20087;-58
2021/03/01 08:01:34;;;;;;;41.22;19.10;;;2.40;99.90;;;;;;5048819;28;20024;-58
2021/03/01 08:04:00;;;;;;;50.03;20.88;;;2.60;99.90;;;;;;5050167;28;20025;-59
2021/03/01 08:06:55;;;;;;;32.22;16.73;;;2.70;99.90;;;;;;5048971;28;20070;-58
2021/03/01 08:09:51;;;;;;;39.10;18.77;;;2.80;99.90;;;;;;5048101;28;20024;-58
2021/03/01 08:12:28;;;;;;;37.75;16.83;;;3.00;99.90;;;;;;5047726;28;20044;-58
2021/03/01 08:14:55;;;;;;;38.08;16.85;;;3.10;99.90;;;;;;5048518;28;20509;-59
2021/03/01 08:17:29;;;;;;;33.25;17.08;;;3.20;99.90;;;;;;5048119;28;20119;-59
2021/03/01 08:20:19;;;;;;;39.80;16.63;;;3.30;99.90;;;;;;5046941;28;20135;-58
2021/03/01 08:23:10;;;;;;;37.15;17.05;;;3.40;99.90;;;;;;5042550;28;20588;-58
2021/03/01 08:25:44;;;;;;;36.75;14.98;;;3.50;99.90;;;;;;5048801;28;20140;-59
2021/03/01 08:28:16;;;;;;;38.47;16.33;;;3.60;99.90;;;;;;5049270;28;20485;-58
2021/03/01 08:30:42;;;;;;;40.65;16.33;;;3.70;99.90;;;;;;5046819;28;20507;-59
2021/03/01 08:33:08;;;;;;;39.80;17.38;;;3.80;99.90;;;;;;5045653;28;20033;-58
2021/03/01 08:35:45;;;;;;;30.33;15.70;;;4.00;99.90;;;;;;5048688;28;20059;-59
2021/03/01 08:38:12;;;;;;;34.53;15.80;;;4.00;99.90;;;;;;5047402;28;20469;-59
2021/03/01 08:40:52;;;;;;;37.97;17.50;;;4.20;99.90;;;;;;5048332;28;20083;-59
2021/03/01 08:43:38;;;;;;;36.88;15.43;;;4.20;99.90;;;;;;5045938;28;20029;-59
2021/03/01 08:46:24;;;;;;;37.92;15.88;;;4.40;99.90;;;;;;5047828;28;20033;-58
2021/03/01 08:48:51;;;;;;;33.60;14.63;;;4.50;99.90;;;;;;5039484;28;20040;-59
2021/03/01 08:51:18;;;;;;;33.35;14.93;;;4.60;99.90;;;;;;5043670;28;20032;-57
2021/03/01 08:53:45;;;;;;;30.77;14.13;;;4.70;99.90;;;;;;5047358;28;20032;-58
2021/03/01 08:56:18;;;;;;;30.95;14.20;;;4.80;99.90;;;;;;5047250;28;20029;-59
2021/03/01 08:58:44;;;;;;;34.45;14.48;;;4.90;99.90;;;;;;5048718;28;20041;-58
2021/03/01 09:01:10;;;;;;;28.15;12.88;;;5.10;99.90;;;;;;5039421;28;20063;-58
2021/03/01 09:03:39;;;;;;;31.45;15.00;;;5.20;99.90;;;;;;5048415;28;20119;-59
2021/03/01 09:06:14;;;;;;;33.85;14.27;;;5.40;99.90;;;;;;5040924;28;20473;-59
2021/03/01 09:08:39;;;;;;;30.10;15.35;;;5.50;99.90;;;;;;5038733;28;20025;-59
2021/03/01 09:11:09;;;;;;;35.97;19.42;;;5.70;99.90;;;;;;5039625;28;20116;-59
2021/03/01 09:13:36;;;;;;;37.72;18.85;;;5.80;99.90;;;;;;5044206;28;20025;-59
2021/03/01 09:16:11;;;;;;;38.83;17.88;;;5.90;99.90;;;;;;5041067;28;20113;-58
2021/03/01 09:18:39;;;;;;;39.58;19.23;;;6.00;99.90;;;;;;5040151;28;20060;-58
2021/03/01 09:21:06;;;;;;;35.35;17.90;;;6.10;99.90;;;;;;5046297;28;20392;-59
2021/03/01 09:23:43;;;;;;;40.58;21.55;;;6.20;99.90;;;;;;5046794;28;20024;-58
2021/03/01 09:26:37;;;;;;;32.30;18.52;;;6.30;99.90;;;;;;5046563;28;20033;-59
2021/03/01 09:29:08;;;;;;;34.80;18.57;;;6.50;99.90;;;;;;5045176;28;20509;-59
2021/03/01 09:31:45;;;;;;;34.10;18.33;;;6.60;99.90;;;;;;5047587;28;20032;-59
2021/03/01 09:34:13;;;;;;;34.35;17.60;;;6.70;99.90;;;;;;5044379;28;20501;-58
2021/03/01 09:36:40;;;;;;;36.05;16.25;;;6.90;99.90;;;;;;5046027;28;20471;-59
2021/03/01 09:39:08;;;;;;;29.67;14.82;;;7.00;99.90;;;;;;5046148;28;20144;-59
2021/03/01 09:41:35;;;;;;;32.10;15.18;;;7.10;99.90;;;;;;5044379;28;20414;-59
2021/03/01 09:44:01;;;;;;;31.88;15.95;;;7.20;99.90;;;;;;5046670;28;20051;-59
2021/03/01 09:46:28;;;;;;;29.33;15.68;;;7.40;99.90;;;;;;5046961;28;20544;-59
2021/03/01 09:48:57;;;;;;;28.33;14.73;;;7.60;99.90;;;;;;5046114;28;20098;-58
2021/03/01 09:51:24;;;;;;;27.13;14.68;;;7.80;99.90;;;;;;5047441;28;20037;-59
2021/03/01 09:53:51;;;;;;;27.00;14.98;;;8.00;99.90;;;;;;5045129;28;20036;-59
2021/03/01 09:56:17;;;;;;;28.77;14.63;;;8.10;99.90;;;;;;5046373;28;20158;-59
2021/03/01 09:58:44;;;;;;;25.83;14.10;;;8.30;99.90;;;;;;5046255;28;20112;-59
2021/03/01 10:01:15;;;;;;;23.85;13.73;;;8.40;99.90;;;;;;5045273;28;20339;-59
2021/03/01 10:03:46;;;;;;;29.33;14.70;;;8.50;99.90;;;;;;5045416;28;20393;-59
2021/03/01 10:06:14;;;;;;;24.73;13.50;;;8.70;99.90;;;;;;5045668;28;20032;-57
2021/03/01 10:08:41;;;;;;;25.67;13.23;;;8.90;99.90;;;;;;5046160;28;20029;-58
2021/03/01 10:11:23;;;;;;;27.15;13.68;;;9.00;99.90;;;;;;5048734;28;20064;-59
2021/03/01 10:13:50;;;;;;;31.85;13.30;;;9.10;99.90;;;;;;5046330;28;20025;-59
2021/03/01 10:16:32;;;;;;;30.60;13.70;;;9.20;99.90;;;;;;5046098;28;20457;-59
2021/03/01 10:19:23;;;;;;;26.40;12.57;;;9.40;99.90;;;;;;5045308;28;20037;-59
2021/03/01 10:21:50;;;;;;;29.65;13.55;;;9.60;99.90;;;;;;5047420;28;20111;-58
2021/03/01 10:24:18;;;;;;;29.38;12.77;;;9.70;99.90;;;;;;5042971;28;20029;-58
2021/03/01 10:26:55;;;;;;;23.83;11.90;;;9.80;99.90;;;;;;5044839;28;20025;-58
2021/03/01 10:29:36;;;;;;;25.98;11.77;;;10.00;99.90;;;;;;5046118;28;20017;-59
2021/03/01 10:32:04;;;;;;;21.23;12.10;;;10.20;99.90;;;;;;5044558;28;20083;-59
2021/03/01 10:34:38;;;;;;;21.35;11.68;;;10.20;99.90;;;;;;5045965;28;20063;-57
2021/03/01 10:37:09;;;;;;;24.33;12.18;;;10.30;99.90;;;;;;5046002;28;20579;-58
2021/03/01 10:39:47;;;;;;;21.15;12.10;;;10.40;99.90;;;;;;5045005;28;20040;-58
2021/03/01 10:42:24;;;;;;;23.48;11.73;;;10.50;99.90;;;;;;5046980;28;20045;-59
2021/03/01 10:44:54;;;;;;;21.58;10.23;;;10.80;99.90;;;;;;5047674;28;20111;-58
2021/03/01 10:47:29;;;;;;;18.23;8.90;;;11.00;99.90;;;;;;5049348;28;20017;-59
2021/03/01 10:49:59;;;;;;;25.08;9.45;;;11.10;99.90;;;;;;5047900;28;20119;-59
2021/03/01 10:52:26;;;;;;;18.20;8.88;;;11.20;99.90;;;;;;5050713;28;20028;-59
2021/03/01 10:54:54;;;;;;;15.95;8.63;;;11.20;99.90;;;;;;5046206;28;20068;-59
2021/03/01 10:57:21;;;;;;;13.95;7.93;;;11.30;99.90;;;;;;5049438;28;20025;-59
2021/03/01 10:59:50;;;;;;;17.33;8.52;;;11.40;99.90;;;;;;5049291;28;20051;-59
2021/03/01 11:02:17;;;;;;;15.90;8.63;;;11.50;99.90;;;;;;5050139;28;20052;-59
2021/03/01 11:04:42;;;;;;;18.13;8.60;;;11.70;99.90;;;;;;5046039;28;20581;-58
2021/03/01 11:07:08;;;;;;;15.52;8.30;;;11.70;99.90;;;;;;5049706;28;20065;-59
2021/03/01 11:09:34;;;;;;;14.43;7.70;;;11.90;99.90;;;;;;5050769;28;20373;-58
2021/03/01 11:11:59;;;;;;;15.38;8.27;;;12.00;99.90;;;;;;5050404;28;20036;-59
2021/03/01 11:14:25;;;;;;;25.05;8.13;;;12.10;99.90;;;;;;5047847;28;20037;-58
2021/03/01 11:16:53;;;;;;;15.98;8.15;;;12.30;99.90;;;;;;5050814;28;20057;-59
2021/03/01 11:19:18;;;;;;;20.75;10.00;;;12.50;99.90;;;;;;5048018;28;20587;-58
2021/03/01 11:21:46;;;;;;;21.75;10.40;;;12.40;99.90;;;;;;5049016;28;20079;-59
2021/03/01 11:24:13;;;;;;;17.60;10.00;;;12.50;99.90;;;;;;5047240;28;20036;-59
2021/03/01 11:26:39;;;;;;;17.17;9.15;;;12.70;99.90;;;;;;5050471;28;20107;-59
2021/03/01 11:29:05;;;;;;;20.08;9.40;;;12.80;99.90;;;;;;5048882;28;20074;-59
2021/03/01 11:31:32;;;;;;;17.75;7.68;;;12.90;99.90;;;;;;5047931;28;20524;-59
2021/03/01 11:34:00;;;;;;;15.68;7.72;;;13.10;99.90;;;;;;5048250;28;20470;-58
2021/03/01 11:36:26;;;;;;;17.45;8.52;;;13.30;99.90;;;;;;5048896;28;20053;-59
2021/03/01 11:38:51;;;;;;;16.70;8.38;;;13.30;99.90;;;;;;5050293;28;20032;-59
2021/03/01 11:41:17;;;;;;;15.30;8.50;;;13.40;99.90;;;;;;5048706;28;20025;-59
2021/03/01 11:43:43;;;;;;;19.63;8.10;;;13.50;99.90;;;;;;5050288;28;20033;-59
2021/03/01 11:46:09;;;;;;;13.80;8.40;;;13.60;99.90;;;;;;5048723;28;20048;-59
2021/03/01 11:48:35;;;;;;;17.08;9.07;;;13.70;99.90;;;;;;5048021;28;20029;-59
2021/03/01 11:51:01;;;;;;;21.17;9.63;;;13.70;99.90;;;;;;5046979;28;20112;-59
2021/03/01 11:53:26;;;;;;;16.27;8.35;;;13.70;99.90;;;;;;5049499;28;20037;-57
2021/03/01 11:55:52;;;;;;;15.43;8.07;;;13.90;99.90;;;;;;5048165;28;20029;-59
2021/03/01 11:58:17;;;;;;;13.57;7.57;;;14.00;99.90;;;;;;5047279;28;20036;-58
2021/03/01 12:00:43;;;;;;;17.33;7.97;;;14.00;99.90;;;;;;5047847;28;20480;-58
2021/03/01 12:03:10;;;;;;;14.15;7.88;;;14.30;99.90;;;;;;5049147;28;20029;-58
2021/03/01 12:05:38;;;;;;;14.90;7.82;;;14.50;99.90;;;;;;5048385;28;20055;-59
2021/03/01 12:08:04;;;;;;;17.20;7.55;;;14.50;99.90;;;;;;5046983;28;20090;-57
2021/03/01 12:10:31;;;;;;;22.38;8.05;;;14.70;99.90;;;;;;5046982;28;20076;-59
2021/03/01 12:12:56;;;;;;;17.67;6.68;;;14.80;99.90;;;;;;5046727;28;20028;-58
2021/03/01 12:15:22;;;;;;;13.43;7.68;;;15.00;99.90;;;;;;5048605;28;20381;-59
2021/03/01 12:17:47;;;;;;;13.57;6.50;;;15.10;99.90;;;;;;5045961;28;20446;-58
2021/03/01 12:20:13;;;;;;;13.75;6.85;;;15.30;99.90;;;;;;5046607;28;20496;-59
2021/03/01 12:22:39;;;;;;;14.07;7.03;;;15.50;99.90;;;;;;5048831;28;20037;-59
2021/03/01 12:25:05;;;;;;;13.10;6.38;;;15.50;99.90;;;;;;5047470;28;20107;-59
2021/03/01 12:27:31;;;;;;;12.63;6.65;;;15.80;99.90;;;;;;5045973;28;20025;-59
2021/03/01 12:29:56;;;;;;;12.55;6.75;;;15.90;99.90;;;;;;5045601;28;20025;-59
2021/03/01 12:32:22;;;;;;;10.35;5.88;;;15.60;99.90;;;;;;5049626;28;20025;-59
2021/03/01 12:34:48;;;;;;;13.25;5.95;;;15.70;99.90;;;;;;5048755;28;20036;-58
2021/03/01 12:37:14;;;;;;;11.10;5.85;;;15.90;99.90;;;;;;5047328;28;20488;-59
2021/03/01 12:39:39;;;;;;;12.45;6.45;;;15.90;99.90;;;;;;5048303;28;20357;-59
2021/03/01 12:42:06;;;;;;;12.18;5.65;;;16.00;99.90;;;;;;5048707;28;20025;-59
2021/03/01 12:44:33;;;;;;;15.85;6.80;;;16.00;99.90;;;;;;5048957;28;20060;-59
2021/03/01 12:46:58;;;;;;;12.32;6.40;;;16.00;99.90;;;;;;5048204;28;20051;-59
2021/03/01 12:49:24;;;;;;;12.05;6.22;;;16.00;99.90;;;;;;5046204;28;20469;-59